createdAt,value
2022-08-24T00:01:28.422Z,1.20
2022-08-24T00:04:00.152Z,1.00
2022-08-24T00:06:28.721Z,1.10
2022-08-24T00:08:58.601Z,1.45
2022-08-24T00:11:26.882Z,1.30
2022-08-24T00:13:54.346Z,1.20
2022-08-24T00:16:22.345Z,1.42
2022-08-24T00:18:49.889Z,1.10
2022-08-24T00:21:19.060Z,1.17
2022-08-24T00:23:47.259Z,1.45
2022-08-24T00:26:15.421Z,2.33
2022-08-24T00:28:42.926Z,1.50
2022-08-24T00:31:10.793Z,1.52
2022-08-24T00:33:38.478Z,3.50
2022-08-24T00:36:06.659Z,1.30
2022-08-24T00:38:35.741Z,1.50
2022-08-24T00:41:04.884Z,1.50
2022-08-24T00:43:33.379Z,1.10
2022-08-24T00:46:07.517Z,1.10
2022-08-24T00:48:41.832Z,1.35
2022-08-24T00:51:23.371Z,1.08
2022-08-24T00:53:57.928Z,2.75
2022-08-24T00:56:35.353Z,2.03
2022-08-24T00:59:27.468Z,1.27
2022-08-24T01:01:58.075Z,1.20
2022-08-24T01:04:50.377Z,1.70
2022-08-24T01:07:18.387Z,1.23
2022-08-24T01:09:45.659Z,1.23
2022-08-24T01:12:12.873Z,1.63
2022-08-24T01:14:40.217Z,1.38
2022-08-24T01:17:26.163Z,2.42
2022-08-24T01:19:58.509Z,1.63
2022-08-24T01:22:46.655Z,1.48
2022-08-24T01:25:14.570Z,1.50
2022-08-24T01:27:43.820Z,1.60
2022-08-24T01:30:15.031Z,1.27
2022-08-24T01:32:53.976Z,1.60
2022-08-24T01:35:22.193Z,1.40
2022-08-24T01:37:50.403Z,1.30
2022-08-24T01:40:20.276Z,3.42
2022-08-24T01:42:53.314Z,1.50
2022-08-24T01:45:21.443Z,2.08
2022-08-24T01:47:48.589Z,1.60
2022-08-24T01:50:15.903Z,1.90
2022-08-24T01:53:04.531Z,2.15
2022-08-24T01:55:32.329Z,1.70
2022-08-24T01:57:59.599Z,3.03
2022-08-24T02:00:28.081Z,1.80
2022-08-24T02:02:57.295Z,1.50
2022-08-24T02:05:25.712Z,1.65
2022-08-24T02:07:53.678Z,1.83
2022-08-24T02:10:22.155Z,1.67
2022-08-24T02:12:58.589Z,1.77
2022-08-24T02:15:40.269Z,1.90
2022-08-24T02:18:15.536Z,1.50
2022-08-24T02:20:45.067Z,2.42
2022-08-24T02:23:12.632Z,1.85
2022-08-24T02:25:39.868Z,2.30
2022-08-24T02:28:07.097Z,1.58
2022-08-24T02:30:34.415Z,1.98
2022-08-24T02:33:02.382Z,1.95
2022-08-24T02:35:30.690Z,1.90
2022-08-24T02:37:59.152Z,1.67
2022-08-24T02:40:26.865Z,1.80
2022-08-24T02:42:54.093Z,2.45
2022-08-24T02:45:21.587Z,1.80
2022-08-24T02:47:48.689Z,2.08
2022-08-24T02:50:18.900Z,2.20
2022-08-24T02:52:46.997Z,3.15
2022-08-24T02:55:20.257Z,2.63
2022-08-24T02:57:48.572Z,3.13
2022-08-24T03:00:19.869Z,3.03
2022-08-24T03:02:47.156Z,3.40
2022-08-24T03:05:15.489Z,4.40
2022-08-24T03:07:43.431Z,3.45
2022-08-24T03:10:11.332Z,3.45
2022-08-24T03:12:39.271Z,3.42
2022-08-24T03:15:10.626Z,3.38
2022-08-24T03:17:39.847Z,3.20
2022-08-24T03:20:13.325Z,3.88
2022-08-24T03:22:41.655Z,3.08
2022-08-24T03:25:09.825Z,3.05
2022-08-24T03:27:37.530Z,3.90
2022-08-24T03:30:10.448Z,3.22
2022-08-24T03:32:40.330Z,3.40
2022-08-24T03:35:08.594Z,3.78
2022-08-24T03:37:35.924Z,3.40
2022-08-24T03:40:04.725Z,3.22
2022-08-24T03:42:32.791Z,3.55
2022-08-24T03:44:59.986Z,3.45
2022-08-24T03:47:27.562Z,3.30
2022-08-24T03:49:56.413Z,3.67
2022-08-24T03:52:23.750Z,3.45
2022-08-24T03:54:53.584Z,3.30
2022-08-24T03:57:20.751Z,3.72
2022-08-24T03:59:47.966Z,3.92
2022-08-24T04:02:15.481Z,3.53
2022-08-24T04:04:43.224Z,3.97
2022-08-24T04:07:11.713Z,3.40
2022-08-24T04:09:38.913Z,2.85
2022-08-24T04:12:06.523Z,4.32
2022-08-24T04:14:34.652Z,3.28
2022-08-24T04:17:03.048Z,3.08
2022-08-24T04:19:30.647Z,3.22
2022-08-24T04:21:59.264Z,3.30
2022-08-24T04:24:27.594Z,3.72
2022-08-24T04:26:54.907Z,3.53
2022-08-24T04:29:22.293Z,4.07
2022-08-24T04:31:49.577Z,3.63
2022-08-24T04:34:18.593Z,3.53
2022-08-24T04:36:47.049Z,4.03
2022-08-24T04:39:14.358Z,3.28
2022-08-24T04:41:42.684Z,3.50
2022-08-24T04:44:10.048Z,3.20
2022-08-24T04:46:37.457Z,3.90
2022-08-24T04:49:04.671Z,3.72
2022-08-24T04:51:36.180Z,4.30
2022-08-24T04:56:32.050Z,3.47
2022-08-24T04:58:59.416Z,4.10
2022-08-24T05:01:30.079Z,3.90
2022-08-24T05:03:57.573Z,4.38
2022-08-24T05:06:28.558Z,4.80
2022-08-24T05:08:56.190Z,5.03
2022-08-24T05:11:24.708Z,4.22
2022-08-24T05:13:54.212Z,4.88
2022-08-24T05:16:23.293Z,6.03
2022-08-24T05:18:51.032Z,6.30
2022-08-24T05:21:21.721Z,5.05
2022-08-24T05:23:49.495Z,5.13
2022-08-24T05:26:26.017Z,6.60
2022-08-24T05:29:00.909Z,5.35
2022-08-24T05:31:32.038Z,4.97
2022-08-24T05:34:01.585Z,5.37
2022-08-24T05:36:40.997Z,6.03
2022-08-24T05:39:13.221Z,5.20
2022-08-24T05:41:44.160Z,4.82
2022-08-24T05:44:17.073Z,4.65
2022-08-24T05:46:45.924Z,4.53
2022-08-24T05:49:13.869Z,4.75
2022-08-24T05:51:42.811Z,5.00
2022-08-24T05:54:13.620Z,5.68
2022-08-24T05:56:40.891Z,5.28
2022-08-24T05:59:08.056Z,5.05
2022-08-24T06:01:35.329Z,5.05
2022-08-24T06:04:02.742Z,4.50
2022-08-24T06:06:30.274Z,5.18
2022-08-24T06:09:00.469Z,5.32
2022-08-24T06:11:37.929Z,5.28
2022-08-24T06:14:16.392Z,5.03
2022-08-24T06:16:46.892Z,5.63
2022-08-24T06:19:17.717Z,5.03
2022-08-24T06:21:48.155Z,4.75
2022-08-24T06:24:16.455Z,4.20
2022-08-24T06:27:03.939Z,4.60
2022-08-24T06:29:34.030Z,4.38
2022-08-24T06:32:01.258Z,4.07
2022-08-24T06:34:28.850Z,4.05
2022-08-24T06:36:56.004Z,3.72
2022-08-24T06:39:24.245Z,3.47
2022-08-24T06:41:52.986Z,3.83
2022-08-24T06:44:20.301Z,3.47
2022-08-24T06:46:47.590Z,3.75
2022-08-24T06:49:14.846Z,3.17
2022-08-24T06:51:42.249Z,3.42
2022-08-24T06:54:11.187Z,3.42
2022-08-24T06:56:39.209Z,3.50
2022-08-24T06:59:06.580Z,3.25
2022-08-24T07:01:33.784Z,3.05
2022-08-24T07:04:01.473Z,3.58
2022-08-24T07:06:28.785Z,2.78
2022-08-24T07:08:56.995Z,3.38
2022-08-24T07:11:25.613Z,3.13
2022-08-24T07:13:52.874Z,2.70
2022-08-24T07:16:21.493Z,2.90
2022-08-24T07:18:50.219Z,2.90
2022-08-24T07:21:20.057Z,2.78
2022-08-24T07:23:49.693Z,2.35
2022-08-24T07:26:23.278Z,2.72
2022-08-24T07:29:05.282Z,2.50
2022-08-24T07:31:39.848Z,2.50
2022-08-24T07:34:10.602Z,1.80
2022-08-24T07:36:44.348Z,2.60
2022-08-24T07:39:12.546Z,2.67
2022-08-24T07:44:31.824Z,1.88
2022-08-24T07:47:15.117Z,2.28
2022-08-24T07:49:46.648Z,1.75
2022-08-24T07:52:13.858Z,1.90
2022-08-24T07:54:41.168Z,1.90
2022-08-24T07:57:08.822Z,2.35
2022-08-24T07:59:37.135Z,1.50
2022-08-24T08:02:05.292Z,1.30
2022-08-24T08:04:33.270Z,1.40
2022-08-24T08:07:03.430Z,1.70
2022-08-24T08:09:30.676Z,1.70
2022-08-24T08:11:57.817Z,1.70
2022-08-24T08:14:25.282Z,2.45
2022-08-24T08:16:52.518Z,3.53
2022-08-24T08:19:19.851Z,1.85
2022-08-24T08:22:12.178Z,1.75
2022-08-24T08:24:44.970Z,1.70
2022-08-24T08:27:15.238Z,1.40
2022-08-24T08:29:43.454Z,1.85
2022-08-24T08:32:14.845Z,1.42
2022-08-24T08:34:42.367Z,1.48
2022-08-24T08:37:10.074Z,1.50
2022-08-24T08:39:38.230Z,1.63
2022-08-24T08:42:28.352Z,0.88
2022-08-24T08:45:23.028Z,0.82
2022-08-24T08:48:44.234Z,0.80
2022-08-24T08:51:42.015Z,0.80
2022-08-24T08:54:26.263Z,0.68
2022-08-24T08:57:12.075Z,0.82
2022-08-24T08:59:44.565Z,1.60
2022-08-24T09:03:05.297Z,1.00
2022-08-24T09:05:57.797Z,0.68
2022-08-24T09:08:36.752Z,1.02
2022-08-24T09:11:42.176Z,1.30
2022-08-24T09:14:50.728Z,0.57
2022-08-24T09:17:50.019Z,0.95
2022-08-24T09:20:42.325Z,1.25
2022-08-24T09:23:34.046Z,0.82
2022-08-24T09:26:30.817Z,1.40
2022-08-24T09:29:23.351Z,1.15
2022-08-24T09:32:22.884Z,1.50
2022-08-24T09:35:12.738Z,1.02
2022-08-24T09:38:06.903Z,1.00
2022-08-24T09:40:33.960Z,1.50
2022-08-24T09:43:25.506Z,1.77
2022-08-24T09:46:23.286Z,1.27
2022-08-24T09:49:20.536Z,1.50
2022-08-24T09:52:49.154Z,1.50
2022-08-24T09:55:37.627Z,1.30
2022-08-24T09:58:17.590Z,3.22
2022-08-24T10:00:54.533Z,1.98
2022-08-24T10:03:38.489Z,1.38
2022-08-24T10:06:17.905Z,1.90
2022-08-24T10:08:45.281Z,1.55
2022-08-24T10:11:34.885Z,1.42
2022-08-24T10:14:28.255Z,1.40
2022-08-24T10:17:46.412Z,1.75
2022-08-24T10:21:08.852Z,1.42
2022-08-24T10:23:50.985Z,1.85
2022-08-24T10:26:37.417Z,1.20
2022-08-24T10:29:58.203Z,3.35
2022-08-24T10:32:55.759Z,0.98
2022-08-24T10:35:33.094Z,1.33
2022-08-24T10:38:51.701Z,1.50
2022-08-24T10:41:59.662Z,1.35
2022-08-24T10:44:49.117Z,1.25
2022-08-24T10:47:31.025Z,1.17
2022-08-24T10:53:30.471Z,0.95
2022-08-24T10:56:15.609Z,1.75
2022-08-24T10:59:14.766Z,1.10
2022-08-24T11:02:13.594Z,1.00
2022-08-24T11:04:41.726Z,1.85
2022-08-24T11:07:22.509Z,1.25
2022-08-24T11:10:01.197Z,1.33
2022-08-24T11:12:28.286Z,0.70
2022-08-24T11:15:00.148Z,0.70
2022-08-24T11:17:32.136Z,1.08
2022-08-24T11:19:59.663Z,0.90
2022-08-24T11:22:41.105Z,0.70
2022-08-24T11:25:16.926Z,0.77
2022-08-24T11:27:48.464Z,1.10
2022-08-24T11:30:18.828Z,1.00
2022-08-24T11:32:57.620Z,0.80
2022-08-24T11:35:33.905Z,1.00
2022-08-24T11:38:21.664Z,2.65
2022-08-24T11:41:02.584Z,0.88
2022-08-24T11:44:25.129Z,0.77
2022-08-24T11:49:23.231Z,0.60
2022-08-24T11:52:17.073Z,0.63
2022-08-24T11:55:24.873Z,1.13
2022-08-24T11:58:24.885Z,0.50
2022-08-24T12:01:10.852Z,0.65
2022-08-24T12:03:44.565Z,0.90
2022-08-24T12:06:50.152Z,0.73
2022-08-24T12:09:51.906Z,1.65
2022-08-24T12:12:34.488Z,1.10
2022-08-24T12:15:16.086Z,1.08
2022-08-24T12:18:02.808Z,0.77
2022-08-24T12:20:39.491Z,0.82
2022-08-24T12:23:44.831Z,0.80
2022-08-24T12:26:22.139Z,1.08
2022-08-24T12:29:35.616Z,0.70
2022-08-24T12:32:58.141Z,0.98
2022-08-24T12:35:50.572Z,0.75
2022-08-24T12:38:37.148Z,0.85
2022-08-24T12:41:21.436Z,0.70
2022-08-24T12:43:52.825Z,0.82
2022-08-24T12:46:25.641Z,0.50
2022-08-24T12:49:01.690Z,0.50
2022-08-24T12:52:06.114Z,0.68
2022-08-24T12:55:01.234Z,0.63
2022-08-24T12:57:55.966Z,0.98
2022-08-24T13:00:47.520Z,1.20
2022-08-24T13:03:35.379Z,0.60
2022-08-24T13:06:09.567Z,0.60
2022-08-24T13:08:47.062Z,0.70
2022-08-24T13:11:32.549Z,0.60
2022-08-24T13:14:29.067Z,0.90
2022-08-24T13:16:56.564Z,0.80
2022-08-24T13:19:23.749Z,1.42
2022-08-24T13:21:58.667Z,0.82
2022-08-24T13:24:29.020Z,1.00
2022-08-24T13:27:00.656Z,1.00
2022-08-24T13:31:59.789Z,1.45
2022-08-24T13:34:46.753Z,1.00
2022-08-24T13:37:24.845Z,0.80
2022-08-24T13:40:20.006Z,1.13
2022-08-24T13:43:23.767Z,0.80
2022-08-24T13:46:18.676Z,0.75
2022-08-24T13:48:54.811Z,1.23
2022-08-24T13:51:45.082Z,1.10
2022-08-24T13:54:58.611Z,0.90
2022-08-24T13:57:46.393Z,0.77
2022-08-24T14:00:49.583Z,0.60
2022-08-24T14:03:20.544Z,0.85
2022-08-24T14:05:58.837Z,0.90
2022-08-24T14:08:54.327Z,1.13
2022-08-24T14:12:02.735Z,0.80
2022-08-24T14:15:09.152Z,0.98
2022-08-24T14:18:02.497Z,1.00
2022-08-24T14:21:05.693Z,0.70
2022-08-24T14:24:05.778Z,0.60
2022-08-24T14:26:38.873Z,0.93
2022-08-24T14:29:18.295Z,0.95
2022-08-24T14:32:04.043Z,0.80
2022-08-24T14:34:50.755Z,1.02
2022-08-24T14:37:41.360Z,1.05
2022-08-24T14:40:26.800Z,1.23
2022-08-24T14:43:14.369Z,0.90
2022-08-24T14:46:18.248Z,0.98
2022-08-24T14:49:41.092Z,1.23
2022-08-24T14:52:46.695Z,1.30
2022-08-24T14:55:32.355Z,0.70
2022-08-24T14:58:43.551Z,0.82
2022-08-24T15:01:19.701Z,0.80
2022-08-24T15:04:38.205Z,0.98
2022-08-24T15:07:31.007Z,1.85
2022-08-24T15:10:01.426Z,1.15
2022-08-24T15:12:54.903Z,0.98
2022-08-24T15:15:34.072Z,0.80
2022-08-24T15:18:41.458Z,0.80
2022-08-24T15:21:54.854Z,0.90
2022-08-24T15:24:40.290Z,1.83
2022-08-24T15:27:40.707Z,0.88
2022-08-24T15:30:27.454Z,0.70
2022-08-24T15:33:19.713Z,1.38
2022-08-24T15:35:51.996Z,0.60
2022-08-24T15:38:35.578Z,1.08
2022-08-24T15:41:08.588Z,0.95
2022-08-24T15:43:51.597Z,0.90
2022-08-24T15:46:25.509Z,0.90
2022-08-24T15:49:21.585Z,1.67
2022-08-24T15:52:31.325Z,0.73
2022-08-24T15:55:04.248Z,0.95
2022-08-24T15:57:41.383Z,0.80
2022-08-24T16:00:44.333Z,0.73
2022-08-24T16:03:25.392Z,0.77
2022-08-24T16:05:56.942Z,0.80
2022-08-24T16:08:24.453Z,1.10
2022-08-24T16:10:55.985Z,0.80
2022-08-24T16:13:29.531Z,0.70
2022-08-24T16:15:59.278Z,0.95
2022-08-24T16:19:02.063Z,0.60
2022-08-24T16:21:37.346Z,0.98
2022-08-24T16:24:14.266Z,0.90
2022-08-24T16:26:47.651Z,1.40
2022-08-24T16:29:36.561Z,1.30
2022-08-24T16:32:33.176Z,1.33
2022-08-24T16:35:11.111Z,1.13
2022-08-24T16:37:39.438Z,1.10
2022-08-24T16:40:08.800Z,0.85
2022-08-24T16:42:37.153Z,0.98
2022-08-24T16:45:21.849Z,1.30
2022-08-24T16:47:49.686Z,1.00
2022-08-24T16:50:20.126Z,0.90
2022-08-24T16:52:47.796Z,0.80
2022-08-24T16:55:15.250Z,0.80
2022-08-24T16:57:42.943Z,0.90
2022-08-24T17:00:15.665Z,0.93
2022-08-24T17:02:44.160Z,0.77
2022-08-24T17:05:12.187Z,1.20
2022-08-24T17:07:39.374Z,5.45
2022-08-24T17:10:10.108Z,1.17
2022-08-24T17:12:38.737Z,1.15
2022-08-24T17:15:09.773Z,0.88
2022-08-24T17:17:38.371Z,0.80
2022-08-24T17:20:12.310Z,1.60
2022-08-24T17:22:39.642Z,1.20
2022-08-24T17:25:07.033Z,1.30
2022-08-24T17:27:34.728Z,1.17
2022-08-24T17:30:05.483Z,1.48
2022-08-24T17:32:33.138Z,2.33
2022-08-24T17:35:02.143Z,1.30
2022-08-24T17:37:29.752Z,1.23
2022-08-24T17:39:59.141Z,1.08
2022-08-24T17:42:49.678Z,4.72
2022-08-24T17:45:14.394Z,1.00
2022-08-24T17:47:43.746Z,1.40
2022-08-24T17:50:13.243Z,1.40
2022-08-24T17:52:41.624Z,1.80
2022-08-24T17:55:11.624Z,2.13
2022-08-24T17:57:39.585Z,1.60
2022-08-24T18:00:10.789Z,1.15
2022-08-24T18:02:39.612Z,1.50
2022-08-24T18:05:10.434Z,2.40
2022-08-24T18:07:52.394Z,1.23
2022-08-24T18:10:28.524Z,1.73
2022-08-24T18:12:58.147Z,1.73
2022-08-24T18:15:34.614Z,1.50
2022-08-24T18:18:09.869Z,2.03
2022-08-24T18:20:40.769Z,1.40
2022-08-24T18:23:11.623Z,2.10
2022-08-24T18:25:47.999Z,2.97
2022-08-24T18:28:17.491Z,2.42
2022-08-24T18:30:46.532Z,1.92
2022-08-24T18:33:13.981Z,2.22
2022-08-24T18:35:41.675Z,2.13
2022-08-24T18:38:08.949Z,1.63
2022-08-24T18:40:36.266Z,1.85
2022-08-24T18:43:04.417Z,1.95
2022-08-24T18:45:33.758Z,2.08
2022-08-24T18:48:02.542Z,2.85
2022-08-24T18:50:29.951Z,2.65
2022-08-24T18:52:59.410Z,2.28
2022-08-24T18:55:27.345Z,2.25
2022-08-24T18:57:55.325Z,2.53
2022-08-24T19:00:22.825Z,2.08
2022-08-24T19:02:50.496Z,2.40
2022-08-24T19:05:24.606Z,2.38
2022-08-24T19:07:54.772Z,2.80
2022-08-24T19:10:29.326Z,2.70
2022-08-24T19:13:02.198Z,3.83
2022-08-24T19:15:39.965Z,2.40
2022-08-24T19:18:12.180Z,2.22
2022-08-24T19:20:49.579Z,2.47
2022-08-24T19:23:30.169Z,2.47
2022-08-24T19:25:58.496Z,2.72
2022-08-24T19:28:27.145Z,2.40
2022-08-24T19:30:57.729Z,1.90
2022-08-24T19:33:29.598Z,2.20
2022-08-24T19:35:58.148Z,2.35
2022-08-24T19:38:26.533Z,3.13
2022-08-24T19:40:57.480Z,2.92
2022-08-24T19:43:29.627Z,3.10
2022-08-24T19:46:02.534Z,7.00
2022-08-24T19:48:36.258Z,2.80
2022-08-24T19:51:11.756Z,3.38
2022-08-24T19:53:39.690Z,4.40
2022-08-24T19:56:07.980Z,3.55
2022-08-24T19:58:52.437Z,2.95
2022-08-24T20:01:37.793Z,3.35
2022-08-24T20:04:07.209Z,7.93
2022-08-24T20:06:37.710Z,5.72
2022-08-24T20:09:05.407Z,4.13
2022-08-24T20:11:32.830Z,3.70
2022-08-24T20:14:00.476Z,3.15
2022-08-24T20:16:35.216Z,3.83
2022-08-24T20:19:03.839Z,3.50
2022-08-24T20:21:31.945Z,2.78
2022-08-24T20:24:00.622Z,2.60
2022-08-24T20:26:31.098Z,3.30
2022-08-24T20:28:59.174Z,3.17
2022-08-24T20:31:28.375Z,3.13
2022-08-24T20:33:57.280Z,3.05
2022-08-24T20:36:29.995Z,2.20
2022-08-24T20:39:00.607Z,2.30
2022-08-24T20:41:28.890Z,2.55
2022-08-24T20:43:57.117Z,3.00
2022-08-24T20:46:26.804Z,2.42
2022-08-24T20:48:56.082Z,2.47
2022-08-24T20:51:27.155Z,2.47
2022-08-24T20:53:55.355Z,3.03
2022-08-24T20:56:35.336Z,2.58
2022-08-24T20:59:09.136Z,3.22
2022-08-24T21:01:37.208Z,3.13
2022-08-24T21:04:05.622Z,2.90
2022-08-24T21:06:34.681Z,3.35
2022-08-24T21:09:02.596Z,2.85
2022-08-24T21:11:30.350Z,3.33
2022-08-24T21:13:57.561Z,4.18
2022-08-24T21:16:25.116Z,2.78
2022-08-24T21:18:52.399Z,3.90
2022-08-24T21:21:20.369Z,3.53
2022-08-24T21:23:47.616Z,2.95
2022-08-24T21:26:20.247Z,4.75
2022-08-24T21:28:47.502Z,3.00
2022-08-24T21:31:14.690Z,3.55
2022-08-24T21:34:00.422Z,2.70
2022-08-24T21:36:31.691Z,3.17
2022-08-24T21:39:00.046Z,3.00
2022-08-24T21:41:29.395Z,2.40
2022-08-24T21:43:57.225Z,2.55
2022-08-24T21:46:35.063Z,3.20
2022-08-24T21:49:02.539Z,3.35
2022-08-24T21:51:30.229Z,3.05
2022-08-24T21:53:59.938Z,3.22
2022-08-24T21:56:31.146Z,3.63
2022-08-24T21:58:59.301Z,2.97
2022-08-24T22:01:26.836Z,3.15
2022-08-24T22:03:54.087Z,3.50
2022-08-24T22:06:21.753Z,3.15
2022-08-24T22:08:48.889Z,3.70
2022-08-24T22:11:19.304Z,3.20
2022-08-24T22:13:47.564Z,3.65
2022-08-24T22:16:14.776Z,3.08
2022-08-24T22:18:42.148Z,3.13
2022-08-24T22:21:15.649Z,2.83
2022-08-24T22:23:42.892Z,3.60
2022-08-24T22:26:11.165Z,2.67
2022-08-24T22:28:41.186Z,3.10
2022-08-24T22:31:28.903Z,3.97
2022-08-24T22:33:59.533Z,3.30
2022-08-24T22:36:29.111Z,2.45
2022-08-24T22:38:58.427Z,2.95
2022-08-24T22:41:26.953Z,2.83
2022-08-24T22:44:14.925Z,3.30
2022-08-24T22:46:42.563Z,2.47
2022-08-24T22:49:11.215Z,3.00
2022-08-24T22:51:39.606Z,3.28
2022-08-24T22:54:07.149Z,2.55
2022-08-24T22:56:39.336Z,2.90
2022-08-24T22:59:08.730Z,2.92
2022-08-24T23:01:43.059Z,3.03
2022-08-24T23:04:15.791Z,3.00
2022-08-24T23:06:43.573Z,2.72
2022-08-24T23:09:11.477Z,3.95
2022-08-24T23:11:39.507Z,3.58
2022-08-24T23:14:09.154Z,2.92
2022-08-24T23:16:40.366Z,3.50
2022-08-24T23:19:27.357Z,3.45
2022-08-24T23:21:54.928Z,3.30
2022-08-24T23:24:22.473Z,3.03
2022-08-24T23:26:50.462Z,3.00
2022-08-24T23:29:18.046Z,3.20
2022-08-24T23:31:46.242Z,3.30
2022-08-24T23:34:14.666Z,3.17
2022-08-24T23:36:43.461Z,3.80
2022-08-24T23:39:11.905Z,4.40
2022-08-24T23:41:46.253Z,3.15
2022-08-24T23:44:22.694Z,3.50
2022-08-24T23:46:50.704Z,3.30
2022-08-24T23:49:20.763Z,4.15
2022-08-24T23:51:49.426Z,3.55
2022-08-24T23:54:17.392Z,4.47
2022-08-24T23:56:47.589Z,3.50
2022-08-24T23:59:22.870Z,4.00
